Time;durP1;ratioP1;P1;durP2;ratioP2;P2;SDS_P1;SDS_P2;PMS_P1;PMS_P2;Temp;Humidity;BMP_temperature;BMP_pressure;BME280_temperature;BME280_humidity;BME280_pressure;Samples;Min_cycle;Max_cycle;Signal;HPM_P1;HPM_P2
2021/04/03 00:00:53;;;;;;;15.27;6.70;;;5.90;1.00;;;;;;5012575;28;20844;-73
2021/04/03 00:03:26;;;;;;;13.73;7.05;;;5.90;1.00;;;;;;5011008;28;20057;-73
2021/04/03 00:05:54;;;;;;;13.77;7.40;;;5.80;1.00;;;;;;5011547;28;20060;-74
2021/04/03 00:08:24;;;;;;;11.73;5.97;;;5.80;1.00;;;;;;5009240;28;20423;-73
2021/04/03 00:10:53;;;;;;;11.40;6.65;;;5.70;1.00;;;;;;5012218;28;20042;-73
2021/04/03 00:13:24;;;;;;;11.52;6.43;;;5.80;1.00;;;;;;5007349;28;20050;-73
2021/04/03 00:15:52;;;;;;;11.02;6.20;;;5.70;1.00;;;;;;5011645;28;20874;-74
2021/04/03 00:18:19;;;;;;;12.07;6.38;;;5.70;1.00;;;;;;5008288;28;20045;-72
2021/04/03 00:20:48;;;;;;;13.63;6.50;;;5.70;1.00;;;;;;5012300;28;20042;-74
2021/04/03 00:23:17;;;;;;;14.80;7.70;;;5.70;1.00;;;;;;5005405;28;20046;-73
2021/04/03 00:25:43;;;;;;;12.68;6.85;;;5.70;1.00;;;;;;5010934;28;20045;-73
2021/04/03 00:28:10;;;;;;;13.82;6.38;;;5.60;1.00;;;;;;5010831;28;20469;-73
2021/04/03 00:30:37;;;;;;;9.63;6.25;;;5.70;1.00;;;;;;5013181;28;20046;-74
2021/04/03 00:33:06;;;;;;;13.23;5.93;;;5.70;1.00;;;;;;5006559;28;20856;-71
2021/04/03 00:35:36;;;;;;;12.15;6.45;;;5.70;1.00;;;;;;5014137;28;20049;-73
2021/04/03 00:38:05;;;;;;;11.15;6.32;;;5.60;1.00;;;;;;5007846;28;20067;-73
2021/04/03 00:40:34;;;;;;;10.32;6.38;;;5.60;1.00;;;;;;5012863;28;20128;-74
2021/04/03 00:43:02;;;;;;;12.18;6.28;;;5.60;1.00;;;;;;5007116;28;20049;-75
2021/04/03 00:45:29;;;;;;;11.68;6.60;;;5.60;1.00;;;;;;5015401;28;20052;-74
2021/04/03 00:47:56;;;;;;;10.63;6.32;;;5.60;1.00;;;;;;5015254;28;20053;-74
2021/04/03 00:50:25;;;;;;;11.30;6.63;;;5.60;1.00;;;;;;5013470;28;20053;-75
2021/04/03 00:52:52;;;;;;;15.00;6.40;;;5.60;1.00;;;;;;5008758;28;20125;-74
2021/04/03 00:55:20;;;;;;;12.15;6.45;;;5.50;1.00;;;;;;5010595;28;20046;-73
2021/04/03 00:57:48;;;;;;;10.30;6.60;;;5.50;1.00;;;;;;5014502;28;20105;-72
2021/04/03 01:00:17;;;;;;;14.10;6.13;;;5.60;1.00;;;;;;5015995;28;20416;-73
2021/04/03 01:02:44;;;;;;;10.57;6.68;;;5.50;1.00;;;;;;5007046;28;20056;-74
2021/04/03 01:05:14;;;;;;;11.13;6.18;;;5.50;1.00;;;;;;5011576;28;20042;-73
2021/04/03 01:07:41;;;;;;;10.00;5.93;;;5.50;1.00;;;;;;5016923;28;20057;-73
2021/04/03 01:10:12;;;;;;;14.60;6.70;;;5.40;1.00;;;;;;5014066;28;20045;-74
2021/04/03 01:12:51;;;;;;;13.50;6.72;;;5.40;1.00;;;;;;5010327;28;20057;-74
2021/04/03 01:15:24;;;;;;;12.57;6.53;;;5.50;1.00;;;;;;5014594;28;20049;-75
2021/04/03 01:18:02;;;;;;;16.27;6.70;;;5.40;1.00;;;;;;5016558;28;20491;-74
2021/04/03 01:20:59;;;;;;;13.25;6.40;;;5.40;1.00;;;;;;5012865;28;20443;-74
2021/04/03 01:23:58;;;;;;;14.05;6.40;;;5.40;1.00;;;;;;5009583;28;20094;-73
2021/04/03 01:27:01;;;;;;;11.00;5.95;;;5.50;1.00;;;;;;5024412;28;20073;-74
2021/04/03 01:30:03;;;;;;;12.15;6.47;;;5.40;1.00;;;;;;5024746;28;20060;-73
2021/04/03 01:32:40;;;;;;;14.45;7.10;;;5.40;1.00;;;;;;5009956;28;20057;-74
2021/04/03 01:35:09;;;;;;;14.30;7.03;;;5.30;1.00;;;;;;5014492;28;20042;-74
2021/04/03 01:37:43;;;;;;;11.52;6.55;;;5.30;1.00;;;;;;5011512;28;20116;-73
2021/04/03 01:40:14;;;;;;;12.10;6.80;;;5.30;1.00;;;;;;5020398;28;20706;-73
2021/04/03 01:42:44;;;;;;;13.32;6.53;;;5.20;1.00;;;;;;5015517;28;20445;-74
2021/04/03 01:45:13;;;;;;;11.40;6.47;;;5.20;1.00;;;;;;5017961;28;20045;-73
2021/04/03 01:47:42;;;;;;;15.50;7.32;;;5.20;1.00;;;;;;5019712;28;20203;-73
2021/04/03 01:50:13;;;;;;;10.05;6.45;;;5.20;1.00;;;;;;5017831;28;20412;-73
2021/04/03 01:52:41;;;;;;;11.00;6.35;;;5.30;1.00;;;;;;5019153;28;20182;-74
2021/04/03 01:55:12;;;;;;;10.07;6.55;;;5.10;1.00;;;;;;5018642;28;20045;-74
2021/04/03 01:57:41;;;;;;;12.70;6.78;;;5.10;1.00;;;;;;5016841;28;20399;-74
2021/04/03 02:00:11;;;;;;;10.88;6.18;;;5.10;1.00;;;;;;5022130;28;20939;-74
2021/04/03 02:02:40;;;;;;;9.38;5.90;;;5.10;1.00;;;;;;5012478;28;20077;-74
2021/04/03 02:05:12;;;;;;;11.15;6.47;;;5.10;1.00;;;;;;5016420;28;20066;-72
2021/04/03 02:07:41;;;;;;;10.13;5.57;;;5.00;1.00;;;;;;5015676;28;20108;-74
2021/04/03 02:10:10;;;;;;;10.80;5.57;;;5.00;1.00;;;;;;5015768;28;20073;-74
2021/04/03 02:12:39;;;;;;;9.95;5.80;;;5.00;1.00;;;;;;5009348;28;20507;-74
2021/04/03 02:15:09;;;;;;;12.13;5.22;;;5.00;1.00;;;;;;5015655;28;20088;-73
2021/04/03 02:17:38;;;;;;;11.25;5.95;;;4.90;1.00;;;;;;5018799;28;20132;-73
2021/04/03 02:20:07;;;;;;;11.82;5.93;;;4.90;1.00;;;;;;5022062;28;20140;-73
2021/04/03 02:22:36;;;;;;;11.30;5.75;;;4.90;1.00;;;;;;5015051;28;20498;-74
2021/04/03 02:25:05;;;;;;;10.07;5.28;;;4.80;1.00;;;;;;5014130;28;20083;-74
2021/04/03 02:27:32;;;;;;;10.98;5.68;;;4.90;1.00;;;;;;5011991;28;20062;-74
2021/04/03 02:30:11;;;;;;;18.55;5.97;;;4.80;1.00;;;;;;5019287;28;20395;-75
2021/04/03 02:32:41;;;;;;;12.80;5.30;;;4.80;1.00;;;;;;5012574;28;20127;-74
2021/04/03 02:35:09;;;;;;;9.57;5.35;;;4.80;1.00;;;;;;5016278;28;20053;-75
2021/04/03 02:37:40;;;;;;;9.60;5.43;;;4.80;1.00;;;;;;5011959;28;20163;-75
2021/04/03 02:40:10;;;;;;;7.53;5.18;;;4.70;1.00;;;;;;5012721;28;20053;-74
2021/04/03 02:42:44;;;;;;;10.88;5.20;;;4.70;1.00;;;;;;5007852;28;20549;-74
2021/04/03 02:45:19;;;;;;;13.50;5.55;;;4.60;1.00;;;;;;5015328;28;20042;-75
2021/04/03 02:47:49;;;;;;;7.75;5.00;;;4.60;1.00;;;;;;5004968;28;20050;-74
2021/04/03 02:50:18;;;;;;;11.18;5.30;;;4.50;1.00;;;;;;5015806;28;20059;-74
2021/04/03 02:52:51;;;;;;;9.27;4.50;;;4.50;1.00;;;;;;5010180;28;20046;-76
2021/04/03 02:55:23;;;;;;;9.77;4.97;;;4.40;1.00;;;;;;5013435;28;20042;-74
2021/04/03 02:57:52;;;;;;;11.52;5.20;;;4.40;1.00;;;;;;5010387;28;20050;-74
2021/04/03 03:00:22;;;;;;;12.50;4.93;;;4.40;1.00;;;;;;5020577;28;20133;-74
2021/04/03 03:02:50;;;;;;;9.93;4.90;;;4.40;1.00;;;;;;5011128;28;20132;-74
2021/04/03 03:05:18;;;;;;;8.15;4.43;;;4.40;1.00;;;;;;5021183;28;20042;-74
2021/04/03 03:07:49;;;;;;;8.50;4.70;;;4.30;1.00;;;;;;5013362;28;20083;-75
2021/04/03 03:10:17;;;;;;;10.23;5.18;;;4.30;1.00;;;;;;5013268;28;20521;-74
2021/04/03 03:12:45;;;;;;;8.43;5.10;;;4.20;1.00;;;;;;5014931;28;20053;-73
2021/04/03 03:15:15;;;;;;;8.32;4.55;;;4.20;1.00;;;;;;5014314;28;20422;-74
2021/04/03 03:17:44;;;;;;;8.55;4.88;;;4.20;1.00;;;;;;5006138;28;20053;-76
2021/04/03 03:20:12;;;;;;;9.48;4.85;;;4.30;1.00;;;;;;5014922;28;20050;-73
2021/04/03 03:22:40;;;;;;;9.52;4.93;;;4.20;1.00;;;;;;5016043;28;20053;-73
2021/04/03 03:25:09;;;;;;;8.00;4.97;;;4.20;1.00;;;;;;5017716;28;20086;-73
2021/04/03 03:27:39;;;;;;;12.70;5.53;;;4.10;1.00;;;;;;5013550;28;20053;-74
2021/04/03 03:30:08;;;;;;;10.43;5.55;;;4.10;1.00;;;;;;5011820;28;20045;-75
2021/04/03 03:32:36;;;;;;;11.38;5.25;;;4.10;1.00;;;;;;5009175;28;20046;-74
2021/04/03 03:35:05;;;;;;;10.73;4.97;;;4.10;1.00;;;;;;5016434;28;20415;-75
2021/04/03 03:37:32;;;;;;;14.63;5.22;;;4.00;1.00;;;;;;5010951;28;20053;-74
2021/04/03 03:40:00;;;;;;;11.10;5.50;;;4.00;1.00;;;;;;5011780;28;20049;-75
2021/04/03 03:42:28;;;;;;;9.63;5.07;;;4.00;1.00;;;;;;5008969;28;20517;-75
2021/04/03 03:44:55;;;;;;;9.40;5.20;;;4.10;1.00;;;;;;5010953;28;20134;-75
2021/04/03 03:47:22;;;;;;;9.82;4.85;;;4.10;1.00;;;;;;5008678;28;20622;-74
2021/04/03 03:49:49;;;;;;;14.55;5.65;;;4.20;1.00;;;;;;5014369;28;20052;-74
2021/04/03 03:52:16;;;;;;;8.93;5.15;;;4.20;1.00;;;;;;5015563;28;20053;-75
2021/04/03 03:54:43;;;;;;;8.77;4.70;;;4.30;1.00;;;;;;5009487;28;20496;-74
2021/04/03 03:57:10;;;;;;;10.07;5.15;;;4.30;1.00;;;;;;5010279;28;20045;-75
2021/04/03 03:59:37;;;;;;;10.85;4.60;;;4.30;1.00;;;;;;5008685;28;20053;-74
2021/04/03 04:02:05;;;;;;;9.02;5.18;;;4.30;1.00;;;;;;5010899;28;20057;-74
2021/04/03 04:04:31;;;;;;;11.43;5.10;;;4.40;1.00;;;;;;5012348;28;20526;-74
2021/04/03 04:06:58;;;;;;;7.45;4.63;;;4.40;1.00;;;;;;5010640;28;20054;-75
2021/04/03 04:09:26;;;;;;;8.23;4.75;;;4.40;1.00;;;;;;5010287;28;20049;-75
2021/04/03 04:11:52;;;;;;;7.28;4.63;;;4.40;1.00;;;;;;5013351;28;20068;-74
2021/04/03 04:14:19;;;;;;;11.57;5.15;;;4.50;1.00;;;;;;5013998;28;20053;-74
2021/04/03 04:16:47;;;;;;;8.98;4.78;;;4.50;1.00;;;;;;5009119;28;20057;-74
2021/04/03 04:19:14;;;;;;;15.43;5.15;;;4.50;1.00;;;;;;5011192;28;20050;-74
2021/04/03 04:21:40;;;;;;;10.65;4.88;;;4.50;1.00;;;;;;5010877;28;20049;-74
2021/04/03 04:24:07;;;;;;;9.88;5.63;;;4.40;1.00;;;;;;5011748;28;20057;-75
2021/04/03 04:26:34;;;;;;;8.10;4.80;;;4.50;1.00;;;;;;5009450;28;20053;-74
2021/04/03 04:29:01;;;;;;;9.70;5.28;;;4.50;1.00;;;;;;5012953;28;20048;-74
2021/04/03 04:31:28;;;;;;;9.57;4.80;;;4.50;1.00;;;;;;5012554;28;20061;-72
2021/04/03 04:33:56;;;;;;;11.60;5.00;;;4.50;1.00;;;;;;5013364;28;20092;-75
2021/04/03 04:36:23;;;;;;;7.82;4.70;;;4.40;1.00;;;;;;5011223;28;20038;-73
2021/04/03 04:38:49;;;;;;;13.38;5.40;;;4.50;1.00;;;;;;5011908;28;20393;-75
2021/04/03 04:41:16;;;;;;;11.35;5.10;;;4.50;1.00;;;;;;5021417;28;20415;-74
2021/04/03 04:43:43;;;;;;;10.85;5.22;;;4.50;1.00;;;;;;5007611;28;20065;-75
2021/04/03 04:46:10;;;;;;;9.57;4.63;;;4.50;1.00;;;;;;5012959;28;20084;-74
2021/04/03 04:48:37;;;;;;;8.68;4.70;;;4.60;1.00;;;;;;5012691;28;20053;-75
2021/04/03 04:51:05;;;;;;;7.13;4.50;;;4.50;1.00;;;;;;5014680;28;20046;-74
2021/04/03 04:53:32;;;;;;;10.20;4.82;;;4.50;1.00;;;;;;5005442;28;20058;-73
2021/04/03 04:56:00;;;;;;;10.68;5.18;;;4.60;1.00;;;;;;5016954;28;20088;-75
2021/04/03 04:58:27;;;;;;;10.70;5.10;;;4.50;1.00;;;;;;5018934;28;20052;-73
2021/04/03 05:00:54;;;;;;;14.35;6.10;;;4.50;1.00;;;;;;5030728;28;20517;-73
2021/04/03 05:03:21;;;;;;;12.82;4.90;;;4.50;1.00;;;;;;5021788;28;20061;-72
2021/04/03 05:05:48;;;;;;;9.25;5.38;;;4.50;1.00;;;;;;5019463;28;20038;-73
2021/04/03 05:08:15;;;;;;;8.05;4.95;;;4.50;1.00;;;;;;5016610;28;20048;-74
2021/04/03 05:10:42;;;;;;;11.07;5.38;;;4.50;1.00;;;;;;5012889;28;20056;-73
2021/04/03 05:13:09;;;;;;;11.15;5.35;;;4.50;1.00;;;;;;5019239;28;20061;-74
2021/04/03 05:15:36;;;;;;;9.65;5.18;;;4.50;1.00;;;;;;5020928;28;20056;-74
2021/04/03 05:18:03;;;;;;;8.93;5.30;;;4.50;1.00;;;;;;5021424;28;20049;-73
2021/04/03 05:20:30;;;;;;;9.18;5.03;;;5.30;1.00;;;;;;5017128;28;20064;-75
2021/04/03 05:22:57;;;;;;;9.85;5.15;;;5.90;1.00;;;;;;5011087;28;20046;-73
2021/04/03 05:25:24;;;;;;;8.45;5.05;;;5.90;1.00;;;;;;5017444;28;20045;-73
2021/04/03 05:27:51;;;;;;;9.13;5.30;;;6.30;1.00;;;;;;5018975;28;20079;-74
2021/04/03 05:30:20;;;;;;;7.38;4.63;;;5.40;1.00;;;;;;5027064;28;20064;-72
2021/04/03 05:32:47;;;;;;;7.57;4.68;;;5.80;1.00;;;;;;5017601;28;20053;-73
2021/04/03 05:35:14;;;;;;;8.63;4.72;;;5.90;1.00;;;;;;5023248;28;20056;-75
2021/04/03 05:37:41;;;;;;;8.23;4.50;;;5.30;1.00;;;;;;5018101;28;20053;-73
2021/04/03 05:40:09;;;;;;;8.00;5.03;;;5.00;1.00;;;;;;5025729;28;20046;-74
2021/04/03 05:42:39;;;;;;;9.27;4.88;;;5.00;1.00;;;;;;5011496;28;20057;-75
2021/04/03 05:45:06;;;;;;;14.02;5.47;;;5.00;1.00;;;;;;5012310;28;20050;-75
2021/04/03 05:47:34;;;;;;;12.40;5.63;;;5.00;1.00;;;;;;5010580;28;20061;-74
2021/04/03 05:50:02;;;;;;;17.10;9.20;;;5.00;1.00;;;;;;5013615;28;20414;-73
2021/04/03 05:52:29;;;;;;;11.95;6.90;;;5.00;1.00;;;;;;5013238;28;20061;-74
2021/04/03 05:54:56;;;;;;;8.48;5.40;;;5.00;1.00;;;;;;5014765;28;20554;-75
2021/04/03 05:57:24;;;;;;;11.52;5.30;;;5.00;1.00;;;;;;5015024;28;20064;-74
2021/04/03 05:59:52;;;;;;;9.90;5.00;;;5.20;1.00;;;;;;5012416;28;20045;-75
2021/04/03 06:02:19;;;;;;;10.25;4.43;;;5.20;1.00;;;;;;5011303;28;20499;-74
2021/04/03 06:04:46;;;;;;;10.43;4.43;;;5.10;1.00;;;;;;5014608;28;20050;-76
2021/04/03 06:07:13;;;;;;;9.85;4.32;;;5.20;1.00;;;;;;5009405;28;20049;-76
2021/04/03 06:09:43;;;;;;;11.50;4.60;;;5.40;1.00;;;;;;5012972;28;20054;-75
2021/04/03 06:12:09;;;;;;;8.27;4.30;;;5.40;1.00;;;;;;5010793;28;20050;-75
2021/04/03 06:14:38;;;;;;;8.00;4.47;;;5.20;1.00;;;;;;5015945;28;20101;-74
2021/04/03 06:17:06;;;;;;;5.90;3.88;;;5.30;1.00;;;;;;5015690;28;20056;-73
2021/04/03 06:19:35;;;;;;;7.95;4.40;;;5.40;1.00;;;;;;5016852;28;20046;-75
2021/04/03 06:22:03;;;;;;;8.15;4.20;;;5.50;1.00;;;;;;5013044;28;20045;-75
2021/04/03 06:24:32;;;;;;;11.02;4.35;;;5.50;1.00;;;;;;5017755;28;20145;-74
2021/04/03 06:27:04;;;;;;;8.55;4.40;;;5.50;1.00;;;;;;5018918;28;20503;-74
2021/04/03 06:29:35;;;;;;;8.18;4.30;;;5.60;1.00;;;;;;5013602;28;20049;-75
2021/04/03 06:32:03;;;;;;;12.25;4.85;;;5.40;1.00;;;;;;5013156;28;20057;-75
2021/04/03 06:34:34;;;;;;;12.52;4.43;;;5.60;1.00;;;;;;5014700;28;20076;-74
2021/04/03 06:37:03;;;;;;;7.22;4.30;;;5.80;1.00;;;;;;5012377;28;20053;-76
2021/04/03 06:39:30;;;;;;;9.45;4.15;;;5.70;1.00;;;;;;5016090;28;20058;-75
2021/04/03 06:41:57;;;;;;;11.93;4.55;;;5.80;1.00;;;;;;5012658;28;20058;-75
2021/04/03 06:44:25;;;;;;;7.22;4.32;;;6.00;1.00;;;;;;5014795;28;20050;-75
2021/04/03 06:46:53;;;;;;;9.52;3.70;;;6.10;1.00;;;;;;5016434;28;20045;-74
2021/04/03 06:49:20;;;;;;;7.40;4.00;;;6.00;1.00;;;;;;5025242;28;20057;-74
2021/04/03 06:51:50;;;;;;;10.95;3.70;;;5.90;1.00;;;;;;5025361;28;20045;-73
2021/04/03 06:54:17;;;;;;;6.35;3.65;;;6.20;1.00;;;;;;5011423;28;20042;-75
2021/04/03 06:56:45;;;;;;;10.20;3.55;;;6.10;1.00;;;;;;5012998;28;20057;-73
2021/04/03 06:59:13;;;;;;;7.30;3.80;;;5.90;1.00;;;;;;5015291;28;20049;-75
2021/04/03 07:01:47;;;;;;;8.77;3.28;;;6.00;1.00;;;;;;5012815;28;20053;-75
2021/04/03 07:04:22;;;;;;;7.27;3.40;;;6.20;1.00;;;;;;5012816;28;20050;-75
2021/04/03 07:06:51;;;;;;;6.72;3.58;;;6.30;1.00;;;;;;5016145;28;20046;-74
2021/04/03 07:09:19;;;;;;;8.52;3.80;;;6.50;1.00;;;;;;5010385;28;20100;-74
2021/04/03 07:11:47;;;;;;;7.38;3.20;;;6.20;1.00;;;;;;5011263;28;20045;-73
2021/04/03 07:14:17;;;;;;;5.85;2.72;;;6.20;1.00;;;;;;5019536;28;20057;-73
2021/04/03 07:16:45;;;;;;;7.10;3.08;;;6.20;1.00;;;;;;5012671;28;20144;-73
2021/04/03 07:19:13;;;;;;;4.60;2.85;;;6.00;1.00;;;;;;5012290;28;20052;-73
2021/04/03 07:21:41;;;;;;;5.70;2.83;;;6.30;1.00;;;;;;5018346;28;20049;-74
2021/04/03 07:24:11;;;;;;;4.30;2.50;;;6.40;1.00;;;;;;5021091;28;20060;-74
2021/04/03 07:26:41;;;;;;;6.22;2.80;;;6.50;1.00;;;;;;5012554;28;20047;-74
2021/04/03 07:29:08;;;;;;;8.30;2.97;;;6.20;1.00;;;;;;5017656;28;20049;-73
2021/04/03 07:31:40;;;;;;;5.30;2.80;;;6.30;1.00;;;;;;5018829;28;20463;-77
2021/04/03 07:34:09;;;;;;;4.82;2.95;;;6.20;1.00;;;;;;5012588;28;20590;-72
2021/04/03 07:36:37;;;;;;;6.15;2.85;;;6.40;1.00;;;;;;5019188;28;20057;-74
2021/04/03 07:39:06;;;;;;;5.50;2.65;;;6.40;1.00;;;;;;5019275;28;20414;-74
2021/04/03 07:41:39;;;;;;;7.22;2.80;;;6.90;1.00;;;;;;5015722;28;20479;-78
2021/04/03 07:44:11;;;;;;;5.97;2.40;;;7.20;1.00;;;;;;5015458;28;20057;-73
2021/04/03 07:46:44;;;;;;;6.50;3.25;;;6.80;1.00;;;;;;5017299;28;20418;-73
2021/04/03 07:49:12;;;;;;;8.93;3.33;;;6.40;1.00;;;;;;5010547;28;20049;-73
2021/04/03 07:51:57;;;;;;;8.00;2.95;;;6.20;1.00;;;;;;5016553;28;20056;-75
2021/04/03 07:54:30;;;;;;;6.15;2.65;;;6.00;1.00;;;;;;5014767;28;20050;-73
2021/04/03 07:57:02;;;;;;;7.20;3.13;;;5.90;1.00;;;;;;5015130;28;20064;-74
2021/04/03 07:59:51;;;;;;;7.25;2.88;;;6.00;1.00;;;;;;5010074;28;20049;-73
2021/04/03 08:02:30;;;;;;;7.85;2.95;;;6.20;1.00;;;;;;5012577;28;20057;-74
2021/04/03 08:04:57;;;;;;;5.82;2.78;;;6.20;1.00;;;;;;5014686;28;20072;-74
2021/04/03 08:07:25;;;;;;;6.00;2.75;;;6.00;1.00;;;;;;5019566;28;20395;-74
2021/04/03 08:09:52;;;;;;;4.70;3.05;;;6.40;1.00;;;;;;5012156;28;20101;-75
2021/04/03 08:12:28;;;;;;;8.13;2.33;;;6.60;1.00;;;;;;5016447;28;20600;-75
2021/04/03 08:14:57;;;;;;;5.97;2.35;;;6.60;1.00;;;;;;5015517;28;20060;-74
2021/04/03 08:17:25;;;;;;;5.68;2.83;;;6.40;1.00;;;;;;5009238;28;20065;-74
2021/04/03 08:19:59;;;;;;;6.68;3.20;;;6.80;1.00;;;;;;5011949;28;20116;-75
2021/04/03 08:22:26;;;;;;;9.20;2.67;;;6.80;1.00;;;;;;5012503;28;20057;-72
2021/04/03 08:24:57;;;;;;;6.88;3.30;;;6.90;1.00;;;;;;5012235;28;20056;-74
2021/04/03 08:27:46;;;;;;;10.02;3.00;;;6.60;1.00;;;;;;5013756;28;20049;-75
2021/04/03 08:30:23;;;;;;;4.75;2.75;;;6.40;1.00;;;;;;5009576;28;20077;-74
2021/04/03 08:33:08;;;;;;;7.88;2.83;;;6.20;1.00;;;;;;5018003;28;20061;-75
2021/04/03 08:35:37;;;;;;;7.72;3.10;;;6.20;1.00;;;;;;5016729;28;20050;-76
2021/04/03 08:38:12;;;;;;;8.30;2.75;;;6.50;1.00;;;;;;5006041;28;20050;-74
2021/04/03 08:40:39;;;;;;;7.63;3.38;;;6.50;1.00;;;;;;5009894;28;20056;-74
2021/04/03 08:43:07;;;;;;;8.43;2.70;;;6.70;1.00;;;;;;5013845;28;20061;-75
2021/04/03 08:45:40;;;;;;;7.30;2.70;;;6.90;1.00;;;;;;5013656;28;20057;-75
2021/04/03 08:48:08;;;;;;;4.85;2.55;;;7.50;1.00;;;;;;5010990;28;20050;-75
2021/04/03 08:50:35;;;;;;;7.30;2.35;;;7.60;1.00;;;;;;5015770;28;20057;-74
2021/04/03 08:53:04;;;;;;;7.32;2.85;;;7.80;1.00;;;;;;5008110;28;20520;-75
2021/04/03 08:55:32;;;;;;;5.55;2.50;;;7.70;1.00;;;;;;5015152;28;20056;-75
2021/04/03 08:58:00;;;;;;;10.70;3.33;;;7.40;1.00;;;;;;5013428;28;20053;-73
2021/04/03 09:00:29;;;;;;;6.60;3.10;;;7.40;1.00;;;;;;5013897;28;20049;-75
2021/04/03 09:02:57;;;;;;;5.30;2.47;;;7.40;1.00;;;;;;5013732;28;20068;-74
2021/04/03 09:05:24;;;;;;;4.72;2.35;;;7.80;1.00;;;;;;5016164;28;20056;-75
2021/04/03 09:07:51;;;;;;;5.68;2.50;;;8.00;1.00;;;;;;5013804;28;20056;-75
2021/04/03 09:10:20;;;;;;;5.28;2.33;;;8.10;1.00;;;;;;5015086;28;20072;-75
2021/04/03 09:12:48;;;;;;;7.70;2.50;;;8.20;1.00;;;;;;5012548;28;20049;-75
2021/04/03 09:15:16;;;;;;;4.90;2.40;;;7.90;1.00;;;;;;5010707;28;20060;-75
2021/04/03 09:17:52;;;;;;;4.88;2.55;;;7.70;1.00;;;;;;5012835;28;20053;-74
2021/04/03 09:20:21;;;;;;;5.68;2.47;;;7.40;1.00;;;;;;5013284;28;20518;-75
2021/04/03 09:22:49;;;;;;;8.05;2.47;;;7.40;1.00;;;;;;5010575;28;20054;-74
2021/04/03 09:25:18;;;;;;;6.25;2.95;;;7.50;1.00;;;;;;5010834;28;20046;-75
2021/04/03 09:28:02;;;;;;;5.55;2.72;;;7.50;1.00;;;;;;5016489;28;20416;-74
2021/04/03 09:30:37;;;;;;;7.00;2.80;;;7.60;1.00;;;;;;5013072;28;20053;-74
2021/04/03 09:33:18;;;;;;;8.13;2.97;;;7.70;1.00;;;;;;5010338;28;20052;-75
2021/04/03 09:35:46;;;;;;;6.60;2.88;;;7.80;1.00;;;;;;5010877;28;20608;-75
2021/04/03 09:38:13;;;;;;;9.65;3.38;;;7.90;1.00;;;;;;5013998;28;20673;-74
2021/04/03 09:40:42;;;;;;;6.60;2.72;;;8.00;1.00;;;;;;5017269;28;20076;-77
2021/04/03 09:43:10;;;;;;;8.35;3.13;;;8.20;1.00;;;;;;5008854;28;20050;-74
2021/04/03 09:45:42;;;;;;;4.03;2.30;;;8.60;1.00;;;;;;5014793;28;20046;-74
2021/04/03 09:48:11;;;;;;;6.70;2.50;;;8.60;1.00;;;;;;5011711;28;20053;-74
2021/04/03 09:50:40;;;;;;;7.65;2.58;;;8.30;1.00;;;;;;5013908;28;20057;-74
2021/04/03 09:53:09;;;;;;;5.10;2.63;;;7.90;1.00;;;;;;5023575;28;20866;-73
2021/04/03 09:55:37;;;;;;;5.30;2.72;;;8.30;1.00;;;;;;5018569;28;20077;-77
2021/04/03 09:58:04;;;;;;;4.53;2.60;;;8.60;1.00;;;;;;5016923;28;20045;-76
2021/04/03 10:00:32;;;;;;;6.30;2.30;;;8.80;1.00;;;;;;5018551;28;20053;-73
2021/04/03 10:03:00;;;;;;;5.05;2.58;;;8.70;1.00;;;;;;5018925;28;20057;-74
2021/04/03 10:05:28;;;;;;;4.30;2.28;;;8.70;1.00;;;;;;5011573;28;20075;-77
2021/04/03 10:07:55;;;;;;;3.88;2.90;;;8.70;1.00;;;;;;5012639;28;20503;-75
2021/04/03 10:10:24;;;;;;;5.50;2.63;;;9.30;1.00;;;;;;5023520;28;20056;-75
2021/04/03 10:12:51;;;;;;;7.22;2.60;;;9.30;1.00;;;;;;5018662;28;20049;-74
2021/04/03 10:15:20;;;;;;;5.60;2.80;;;8.90;1.00;;;;;;5015995;28;20475;-74
2021/04/03 10:17:48;;;;;;;12.65;2.83;;;9.10;1.00;;;;;;5017650;28;20058;-76
2021/04/03 10:20:16;;;;;;;4.68;2.47;;;9.60;1.00;;;;;;5021922;28;20521;-76
2021/04/03 10:22:43;;;;;;;11.02;3.05;;;8.80;1.00;;;;;;5023617;28;20045;-74
2021/04/03 10:25:12;;;;;;;7.70;3.15;;;9.00;1.00;;;;;;5021499;28;20054;-74
2021/04/03 10:27:39;;;;;;;8.77;2.80;;;9.00;1.00;;;;;;5015382;28;20066;-74
2021/04/03 10:30:08;;;;;;;8.82;2.97;;;8.90;1.00;;;;;;5016244;28;20058;-74
2021/04/03 10:32:34;;;;;;;7.05;2.25;;;8.90;1.00;;;;;;5015663;28;20140;-73
2021/04/03 10:35:02;;;;;;;10.27;2.60;;;9.10;1.00;;;;;;5016521;28;20052;-74
2021/04/03 10:37:29;;;;;;;4.80;3.20;;;9.30;1.00;;;;;;5024671;28;20080;-74
2021/04/03 10:39:58;;;;;;;5.93;2.50;;;9.30;1.00;;;;;;5015336;28;20056;-77
2021/04/03 10:42:26;;;;;;;20.73;9.90;;;9.40;1.00;;;;;;5013949;28;20404;-74
2021/04/03 10:44:53;;;;;;;40.38;17.95;;;9.70;1.00;;;;;;5025180;28;20053;-74
2021/04/03 10:47:20;;;;;;;656.97;422.77;;;9.50;1.00;;;;;;5011494;28;20053;-74
2021/04/03 10:49:47;;;;;;;9.02;3.25;;;9.80;1.00;;;;;;5014107;28;20400;-73
2021/04/03 10:52:14;;;;;;;5.65;2.80;;;9.40;1.00;;;;;;5011742;28;20411;-75
2021/04/03 10:54:41;;;;;;;5.43;2.65;;;9.30;1.00;;;;;;5025669;28;20046;-74
2021/04/03 10:57:08;;;;;;;7.13;2.70;;;9.20;1.00;;;;;;5023893;28;20037;-73
2021/04/03 10:59:36;;;;;;;8.70;3.17;;;9.50;1.00;;;;;;5012872;28;20054;-76
2021/04/03 11:02:04;;;;;;;6.68;2.60;;;9.50;1.00;;;;;;5032852;28;20117;-76
2021/04/03 11:04:30;;;;;;;8.40;3.00;;;9.50;1.00;;;;;;5020348;28;20057;-73
2021/04/03 11:06:58;;;;;;;4.55;1.90;;;9.60;1.00;;;;;;5017940;28;20042;-74
2021/04/03 11:09:25;;;;;;;5.25;2.45;;;9.60;1.00;;;;;;5016474;28;20456;-74
2021/04/03 11:11:52;;;;;;;5.32;2.40;;;9.90;1.00;;;;;;5009900;28;20057;-74
2021/04/03 11:14:19;;;;;;;5.25;2.25;;;10.40;1.00;;;;;;5012606;28;20058;-75
2021/04/03 11:16:47;;;;;;;4.70;2.67;;;10.20;1.00;;;;;;5015713;28;20521;-73
2021/04/03 11:19:13;;;;;;;7.60;3.40;;;9.90;1.00;;;;;;5015274;28;20531;-74
2021/04/03 11:21:40;;;;;;;7.05;2.60;;;9.70;1.00;;;;;;5019713;28;20056;-73
2021/04/03 11:24:08;;;;;;;10.30;3.25;;;9.40;1.00;;;;;;5021813;28;20569;-76
2021/04/03 11:26:36;;;;;;;5.35;2.60;;;9.40;1.00;;;;;;5011254;28;20042;-74
2021/04/03 11:29:03;;;;;;;4.00;2.60;;;9.80;1.00;;;;;;5009663;28;20177;-74
2021/04/03 11:31:30;;;;;;;7.97;2.70;;;9.80;1.00;;;;;;5013642;28;20064;-75
2021/04/03 11:33:57;;;;;;;5.25;2.53;;;10.00;1.00;;;;;;5020675;28;20581;-75
2021/04/03 11:36:24;;;;;;;5.45;2.13;;;9.70;1.00;;;;;;5017416;28;20042;-74
2021/04/03 11:38:51;;;;;;;4.40;2.65;;;9.40;1.00;;;;;;5016010;28;20042;-74
2021/04/03 11:41:18;;;;;;;6.00;2.47;;;9.60;1.00;;;;;;5017232;28;20050;-73
2021/04/03 11:43:45;;;;;;;4.18;1.83;;;9.80;1.00;;;;;;5015136;28;20050;-74
2021/04/03 11:46:11;;;;;;;3.50;1.88;;;10.10;1.00;;;;;;5019977;28;20046;-74
2021/04/03 11:48:38;;;;;;;4.30;1.85;;;10.50;1.00;;;;;;5018093;28;20070;-74
2021/04/03 11:51:06;;;;;;;4.65;1.88;;;10.80;1.00;;;;;;5017812;28;20050;-74
2021/04/03 11:53:33;;;;;;;2.45;1.80;;;10.70;1.00;;;;;;5015229;28;20422;-74
2021/04/03 11:56:00;;;;;;;3.58;2.20;;;10.80;1.00;;;;;;5017923;28;20124;-77
2021/04/03 11:58:29;;;;;;;5.57;3.13;;;10.70;1.00;;;;;;5005826;28;20070;-74
2021/04/03 12:00:56;;;;;;;6.13;2.50;;;10.50;1.00;;;;;;5016229;28;20955;-74
2021/04/03 12:03:23;;;;;;;4.50;1.92;;;10.10;1.00;;;;;;5024014;28;20053;-74
2021/04/03 12:05:50;;;;;;;2.35;1.70;;;9.60;1.00;;;;;;5023284;28;20053;-77
2021/04/03 12:08:18;;;;;;;4.95;2.33;;;9.50;1.00;;;;;;5014067;28;20077;-75
2021/04/03 12:10:45;;;;;;;3.05;1.77;;;9.40;1.00;;;;;;5012446;28;20061;-74
2021/04/03 12:13:12;;;;;;;3.13;2.00;;;9.80;1.00;;;;;;5012048;28;20052;-73
2021/04/03 12:15:39;;;;;;;3.92;1.73;;;10.40;1.00;;;;;;5018292;28;20503;-78
2021/04/03 12:18:06;;;;;;;8.32;2.35;;;10.80;1.00;;;;;;5012179;28;20140;-74
2021/04/03 12:20:33;;;;;;;2.38;1.83;;;11.00;1.00;;;;;;5016548;28;20060;-75
2021/04/03 12:23:01;;;;;;;14.07;1.88;;;11.40;1.00;;;;;;5015179;28;20503;-72
2021/04/03 12:25:29;;;;;;;4.38;1.70;;;10.80;1.00;;;;;;5010554;28;20147;-72
2021/04/03 12:27:56;;;;;;;3.25;1.70;;;10.30;1.00;;;;;;5010185;28;20046;-74
2021/04/03 12:30:23;;;;;;;2.42;1.80;;;10.10;1.00;;;;;;5012306;28;20065;-75
2021/04/03 12:32:50;;;;;;;3.63;1.88;;;10.00;1.00;;;;;;5012860;28;20057;-74
2021/04/03 12:35:17;;;;;;;3.38;1.98;;;10.30;1.00;;;;;;5012132;28;20132;-74
2021/04/03 12:37:44;;;;;;;2.20;1.65;;;10.70;1.00;;;;;;5012171;28;20042;-73
2021/04/03 12:40:12;;;;;;;3.40;1.80;;;11.00;1.00;;;;;;5011697;28;20073;-74
2021/04/03 12:42:40;;;;;;;4.07;1.83;;;11.30;1.00;;;;;;5008072;28;20091;-75
2021/04/03 12:45:08;;;;;;;2.03;1.42;;;11.20;1.00;;;;;;5019650;28;20058;-73
2021/04/03 12:47:35;;;;;;;3.08;1.35;;;11.00;1.00;;;;;;5010056;28;20050;-76
2021/04/03 12:50:03;;;;;;;6.32;1.58;;;10.70;1.00;;;;;;5010286;28;20088;-74
2021/04/03 12:52:30;;;;;;;2.47;1.88;;;11.40;1.00;;;;;;5015358;28;20057;-74
2021/04/03 12:54:57;;;;;;;3.35;1.50;;;11.80;1.00;;;;;;5013784;28;20081;-75
2021/04/03 12:57:24;;;;;;;3.22;1.40;;;11.60;1.00;;;;;;5018152;28;20358;-73
2021/04/03 12:59:52;;;;;;;3.72;2.00;;;10.90;1.00;;;;;;5010254;28;20049;-74
2021/04/03 13:02:19;;;;;;;5.30;1.90;;;10.80;1.00;;;;;;5015014;28;20046;-74
2021/04/03 13:04:46;;;;;;;3.47;1.58;;;10.50;1.00;;;;;;5013544;28;20140;-74
2021/04/03 13:07:13;;;;;;;4.00;1.70;;;10.60;1.00;;;;;;5017276;28;20056;-74
2021/04/03 13:09:40;;;;;;;4.70;1.83;;;10.80;1.00;;;;;;5013617;28;20487;-75
2021/04/03 13:12:08;;;;;;;3.50;1.95;;;11.50;1.00;;;;;;5011830;28;20045;-73